createdAt,value
2022-12-03T00:00:12.965Z,0.67
2022-12-03T00:03:01.370Z,0.65
2022-12-03T00:05:29.449Z,0.66
2022-12-03T00:07:57.689Z,0.67
2022-12-03T00:10:25.642Z,0.70
2022-12-03T00:12:53.431Z,0.69
2022-12-03T00:15:21.327Z,0.70
2022-12-03T00:17:49.163Z,0.67
2022-12-03T00:20:20.649Z,0.65
2022-12-03T00:22:48.957Z,0.65
2022-12-03T00:25:17.771Z,0.65
2022-12-03T00:27:45.734Z,0.61
2022-12-03T00:30:14.441Z,0.59
2022-12-03T00:32:43.042Z,0.61
2022-12-03T00:35:11.256Z,0.59
2022-12-03T00:37:39.166Z,0.55
2022-12-03T00:40:08.162Z,0.51
2022-12-03T00:42:35.997Z,0.46
2022-12-03T00:45:05.260Z,0.44
2022-12-03T00:47:33.196Z,0.43
2022-12-03T00:50:01.036Z,0.43
2022-12-03T00:52:28.930Z,0.43
2022-12-03T00:54:56.735Z,0.45
2022-12-03T00:57:24.724Z,0.46
2022-12-03T00:59:52.516Z,0.47
2022-12-03T01:02:20.482Z,0.48
2022-12-03T01:04:48.579Z,0.47
2022-12-03T01:07:16.475Z,0.47
2022-12-03T01:09:44.304Z,0.48
2022-12-03T01:12:12.139Z,0.50
2022-12-03T01:14:40.575Z,0.53
2022-12-03T01:17:08.503Z,0.55
2022-12-03T01:19:36.531Z,0.57
2022-12-03T01:22:04.725Z,0.58
2022-12-03T01:24:32.584Z,0.59
2022-12-03T01:27:01.092Z,0.58
2022-12-03T01:29:29.074Z,0.55
2022-12-03T01:32:15.573Z,0.54
2022-12-03T01:34:44.526Z,0.54
2022-12-03T01:37:12.442Z,0.56
2022-12-03T01:39:40.764Z,0.57
2022-12-03T01:42:22.501Z,0.56
2022-12-03T01:44:55.527Z,0.56
2022-12-03T01:47:33.183Z,0.55
2022-12-03T01:50:06.274Z,0.53
2022-12-03T01:52:38.374Z,0.51
2022-12-03T01:55:20.013Z,0.49
2022-12-03T01:57:51.663Z,0.50
2022-12-03T02:00:22.784Z,0.48
2022-12-03T02:02:55.072Z,0.47
2022-12-03T02:05:26.522Z,0.48
2022-12-03T02:07:55.085Z,0.48
2022-12-03T02:10:27.368Z,0.50
2022-12-03T02:12:59.727Z,0.51
2022-12-03T02:15:27.956Z,0.53
2022-12-03T02:17:56.768Z,0.52
2022-12-03T02:20:24.687Z,0.51
2022-12-03T02:23:13.190Z,0.52
2022-12-03T02:25:41.169Z,0.53
2022-12-03T02:28:09.968Z,0.55
2022-12-03T02:30:37.935Z,0.55
2022-12-03T02:33:05.780Z,0.55
2022-12-03T02:35:36.433Z,0.55
2022-12-03T02:38:12.367Z,0.56
2022-12-03T02:40:41.777Z,0.58
2022-12-03T02:43:10.608Z,0.58
2022-12-03T02:45:41.738Z,0.57
2022-12-03T02:48:20.176Z,0.57
2022-12-03T02:50:51.826Z,0.57
2022-12-03T02:53:23.488Z,0.56
2022-12-03T02:55:53.293Z,0.55
2022-12-03T02:58:23.387Z,0.54
2022-12-03T03:00:54.051Z,0.50
2022-12-03T03:03:23.756Z,0.49
2022-12-03T03:05:52.576Z,0.50
2022-12-03T03:08:20.567Z,0.46
2022-12-03T03:10:49.567Z,0.44
2022-12-03T03:13:19.479Z,0.44
2022-12-03T03:15:48.019Z,0.42
2022-12-03T03:18:16.724Z,0.42
2022-12-03T03:20:45.355Z,0.44
2022-12-03T03:23:17.887Z,0.44
2022-12-03T03:26:00.005Z,0.41
2022-12-03T03:28:30.472Z,0.38
2022-12-03T03:31:02.263Z,0.37
2022-12-03T03:33:31.372Z,0.37
2022-12-03T03:36:00.623Z,0.37
2022-12-03T03:38:30.282Z,0.37
2022-12-03T03:41:01.857Z,0.38
2022-12-03T03:43:31.022Z,0.38
2022-12-03T03:45:59.245Z,0.37
2022-12-03T03:48:27.816Z,0.35
2022-12-03T03:50:56.797Z,0.33
2022-12-03T03:53:25.007Z,0.33
2022-12-03T03:55:53.186Z,0.33
2022-12-03T03:58:21.080Z,0.32
2022-12-03T04:00:48.990Z,0.31
2022-12-03T04:03:16.860Z,0.32
2022-12-03T04:05:44.709Z,0.35
2022-12-03T04:08:12.561Z,0.37
2022-12-03T04:10:59.110Z,0.39
2022-12-03T04:13:27.000Z,0.43
2022-12-03T04:15:54.967Z,0.44
2022-12-03T04:18:41.516Z,0.41
2022-12-03T04:21:39.226Z,0.41
2022-12-03T04:24:09.446Z,0.42
2022-12-03T04:26:57.042Z,0.44
2022-12-03T04:29:24.972Z,0.48
2022-12-03T04:32:11.187Z,0.48
2022-12-03T04:34:57.961Z,0.49
2022-12-03T04:37:25.867Z,0.51
2022-12-03T04:39:53.764Z,0.51
2022-12-03T04:42:21.921Z,0.52
2022-12-03T04:44:50.395Z,0.51
2022-12-03T04:47:20.861Z,0.51
2022-12-03T04:49:50.728Z,0.50
2022-12-03T04:52:20.481Z,0.49
2022-12-03T04:54:48.437Z,0.50
2022-12-03T04:57:17.360Z,0.49
2022-12-03T04:59:45.266Z,0.50
2022-12-03T05:02:13.235Z,0.49
2022-12-03T05:04:41.934Z,0.52
2022-12-03T05:07:11.533Z,0.51
2022-12-03T05:09:39.362Z,0.51
2022-12-03T05:12:07.296Z,0.53
2022-12-03T05:14:36.475Z,0.56
2022-12-03T05:17:04.313Z,0.58
2022-12-03T05:19:50.906Z,0.58
2022-12-03T05:22:18.745Z,0.59
2022-12-03T05:24:46.555Z,0.62
2022-12-03T05:27:16.621Z,0.64
2022-12-03T05:29:46.677Z,0.66
2022-12-03T05:32:15.153Z,0.65
2022-12-03T05:34:42.939Z,0.65
2022-12-03T05:37:11.155Z,0.65
2022-12-03T05:39:39.113Z,0.67
2022-12-03T05:42:27.251Z,0.72
2022-12-03T05:44:55.661Z,0.75
2022-12-03T05:47:23.712Z,0.73
2022-12-03T05:49:51.492Z,0.73
2022-12-03T05:52:19.309Z,0.73
2022-12-03T05:54:47.216Z,0.73
2022-12-03T05:57:15.096Z,0.74
2022-12-03T05:59:42.970Z,0.73
2022-12-03T06:02:11.383Z,0.71
2022-12-03T06:04:39.281Z,0.68
2022-12-03T06:07:12.323Z,0.66
2022-12-03T06:09:41.740Z,0.66
2022-12-03T06:12:09.588Z,0.67
2022-12-03T06:14:37.470Z,0.65
2022-12-03T06:17:05.316Z,0.66
2022-12-03T06:19:33.642Z,0.70
2022-12-03T06:22:01.510Z,0.73
2022-12-03T06:24:29.380Z,0.76
2022-12-03T06:26:57.244Z,0.77
2022-12-03T06:29:25.159Z,0.77
2022-12-03T06:31:53.077Z,0.79
2022-12-03T06:34:20.884Z,0.83
2022-12-03T06:36:50.226Z,0.83
2022-12-03T06:39:18.154Z,0.81
2022-12-03T06:41:45.894Z,0.80
2022-12-03T06:44:14.213Z,0.81
2022-12-03T06:46:42.296Z,0.84
2022-12-03T06:49:10.285Z,0.85
2022-12-03T06:51:38.729Z,0.87
2022-12-03T06:54:06.917Z,0.89
2022-12-03T06:56:40.359Z,0.91
2022-12-03T06:59:12.985Z,0.95
2022-12-03T07:01:40.836Z,0.94
2022-12-03T07:04:08.764Z,0.96
2022-12-03T07:06:36.625Z,0.96
2022-12-03T07:09:04.417Z,0.95
2022-12-03T07:11:32.267Z,0.96
2022-12-03T07:14:05.403Z,0.96
2022-12-03T07:16:37.453Z,0.93
2022-12-03T07:19:06.658Z,0.95
2022-12-03T07:21:34.541Z,0.95
2022-12-03T07:24:02.371Z,0.97
2022-12-03T07:26:30.222Z,0.98
2022-12-03T07:28:58.237Z,1.00
2022-12-03T07:31:26.245Z,1.02
2022-12-03T07:33:54.156Z,1.05
2022-12-03T07:36:22.052Z,1.07
2022-12-03T07:38:49.863Z,1.05
2022-12-03T07:41:17.737Z,1.05
2022-12-03T07:43:45.543Z,1.07
2022-12-03T07:46:13.522Z,1.09
2022-12-03T07:48:41.402Z,1.11
2022-12-03T07:51:14.303Z,1.14
2022-12-03T07:53:43.529Z,1.23
2022-12-03T07:56:11.579Z,1.27
2022-12-03T07:58:39.522Z,1.30
2022-12-03T08:01:07.500Z,1.33
2022-12-03T08:03:35.369Z,1.36
2022-12-03T08:06:03.318Z,1.40
2022-12-03T08:08:31.231Z,1.46
2022-12-03T08:10:59.059Z,1.49
2022-12-03T08:13:27.930Z,1.49
2022-12-03T08:15:57.404Z,1.50
2022-12-03T08:18:25.536Z,1.52
2022-12-03T08:20:53.497Z,1.54
2022-12-03T08:23:25.619Z,1.60
2022-12-03T08:25:53.559Z,1.61
2022-12-03T08:28:24.198Z,1.61
2022-12-03T08:31:12.363Z,1.62
2022-12-03T08:33:41.938Z,1.67
2022-12-03T08:36:29.361Z,1.68
2022-12-03T08:39:01.296Z,1.67
2022-12-03T08:41:48.805Z,1.69
2022-12-03T08:44:38.864Z,1.65
2022-12-03T08:47:10.031Z,1.66
2022-12-03T08:53:31.789Z,1.58
2022-12-03T08:56:10.830Z,1.59
2022-12-03T08:58:47.659Z,1.55
2022-12-03T09:01:38.948Z,1.58
2022-12-03T09:04:22.701Z,1.61
2022-12-03T09:06:52.309Z,1.66
2022-12-03T09:09:20.752Z,1.69
2022-12-03T09:11:49.239Z,1.76
2022-12-03T09:14:23.717Z,1.82
2022-12-03T09:16:55.992Z,1.89
2022-12-03T09:19:25.997Z,1.89
2022-12-03T09:21:54.947Z,1.92
2022-12-03T09:24:23.206Z,1.96
2022-12-03T09:26:51.262Z,2.01
2022-12-03T09:29:19.152Z,2.06
2022-12-03T09:31:47.278Z,2.13
2022-12-03T09:34:15.712Z,2.19
2022-12-03T09:36:43.559Z,2.22
2022-12-03T09:39:11.481Z,2.24
2022-12-03T09:41:39.440Z,2.26
2022-12-03T09:44:13.711Z,2.26
2022-12-03T09:46:46.498Z,2.26
2022-12-03T09:49:17.762Z,2.27
2022-12-03T09:51:46.595Z,2.29
2022-12-03T09:54:24.034Z,2.30
2022-12-03T09:56:53.985Z,2.30
2022-12-03T09:59:25.782Z,2.27
2022-12-03T10:01:54.633Z,2.28
2022-12-03T10:04:22.704Z,2.30
2022-12-03T10:06:51.298Z,2.31
2022-12-03T10:09:25.688Z,2.31
2022-12-03T10:11:55.579Z,2.32
2022-12-03T10:14:23.867Z,2.34
2022-12-03T10:16:52.238Z,2.39
2022-12-03T10:19:31.962Z,2.42
2022-12-03T10:22:05.134Z,2.44
2022-12-03T10:24:34.991Z,2.45
2022-12-03T10:30:44.107Z,2.50
2022-12-03T10:33:33.442Z,2.49
2022-12-03T10:36:23.537Z,2.48
2022-12-03T10:39:10.927Z,2.49
2022-12-03T10:41:41.282Z,2.53
2022-12-03T10:44:20.696Z,2.57
2022-12-03T10:47:07.393Z,2.55
2022-12-03T10:49:36.158Z,2.56
2022-12-03T10:52:05.134Z,2.57
2022-12-03T10:54:35.099Z,2.55
2022-12-03T10:57:03.217Z,2.50
2022-12-03T10:59:33.634Z,2.50
2022-12-03T11:04:52.986Z,2.58
2022-12-03T11:07:23.902Z,2.63
2022-12-03T11:09:58.865Z,2.65
2022-12-03T11:13:13.837Z,2.68
2022-12-03T11:15:44.620Z,2.69
2022-12-03T11:18:38.374Z,2.71
2022-12-03T11:21:09.021Z,2.74
2022-12-03T11:23:46.266Z,2.81
2022-12-03T11:26:56.933Z,2.88
2022-12-03T11:29:56.644Z,2.96
2022-12-03T11:32:43.111Z,2.98
2022-12-03T11:35:12.905Z,2.88
2022-12-03T11:38:18.717Z,2.86
2022-12-03T11:41:25.333Z,2.85
2022-12-03T11:44:29.467Z,2.82
2022-12-03T11:46:59.395Z,2.83
2022-12-03T11:49:39.596Z,2.78
2022-12-03T11:52:41.784Z,2.78
2022-12-03T11:55:22.098Z,2.79
2022-12-03T11:58:03.608Z,2.79
2022-12-03T12:00:32.315Z,2.76
2022-12-03T12:03:03.430Z,2.77
2022-12-03T12:05:33.750Z,2.81
2022-12-03T12:08:03.113Z,2.85
2022-12-03T12:10:43.861Z,2.84
2022-12-03T12:13:25.240Z,2.83
2022-12-03T12:15:53.587Z,2.83
2022-12-03T12:18:36.829Z,2.79
2022-12-03T12:21:42.957Z,2.75
2022-12-03T12:24:40.224Z,2.76
2022-12-03T12:27:12.074Z,2.77
2022-12-03T12:29:55.076Z,2.78
2022-12-03T12:32:51.257Z,2.73
2022-12-03T12:35:25.317Z,2.71
2022-12-03T12:37:59.965Z,2.71
2022-12-03T12:40:32.441Z,2.70
2022-12-03T12:43:15.381Z,2.70
2022-12-03T12:45:44.735Z,2.70
2022-12-03T12:48:15.440Z,2.71
2022-12-03T12:50:47.289Z,2.74
2022-12-03T12:53:35.040Z,2.78
2022-12-03T12:56:26.261Z,2.83
2022-12-03T12:58:57.171Z,2.85
2022-12-03T13:01:28.659Z,2.85
2022-12-03T13:03:56.989Z,2.84
2022-12-03T13:06:46.110Z,2.83
2022-12-03T13:09:23.796Z,2.79
2022-12-03T13:11:58.824Z,2.77
2022-12-03T13:14:34.684Z,2.76
2022-12-03T13:17:24.620Z,2.75
2022-12-03T13:20:30.506Z,2.75
2022-12-03T13:22:58.595Z,2.73
2022-12-03T13:26:36.105Z,2.70
2022-12-03T13:29:15.641Z,2.66
2022-12-03T13:31:50.587Z,2.64
2022-12-03T13:34:27.845Z,2.65
2022-12-03T13:36:58.587Z,2.64
2022-12-03T13:39:33.256Z,2.65
2022-12-03T13:42:38.033Z,2.64
2022-12-03T13:45:36.180Z,2.66
2022-12-03T13:48:35.721Z,2.66
2022-12-03T13:51:36.199Z,2.69
2022-12-03T13:54:14.389Z,2.69
2022-12-03T13:56:44.096Z,2.70
2022-12-03T13:59:12.149Z,2.75
2022-12-03T14:01:40.575Z,2.77
2022-12-03T14:04:27.780Z,2.79
2022-12-03T14:06:55.822Z,2.78
2022-12-03T14:09:38.969Z,2.75
2022-12-03T14:12:25.868Z,2.76
2022-12-03T14:14:57.527Z,2.76
2022-12-03T14:17:31.018Z,2.75
2022-12-03T14:20:01.548Z,2.75
2022-12-03T14:22:38.047Z,2.75
2022-12-03T14:25:07.165Z,2.76
2022-12-03T14:27:35.197Z,2.74
2022-12-03T14:30:07.511Z,2.75
2022-12-03T14:32:36.683Z,2.78
2022-12-03T14:35:09.666Z,2.80
2022-12-03T14:37:39.414Z,2.80
2022-12-03T14:40:10.484Z,2.80
2022-12-03T14:42:40.373Z,2.81
2022-12-03T14:45:11.826Z,2.77
2022-12-03T14:47:44.582Z,2.73
2022-12-03T14:50:15.292Z,2.71
2022-12-03T14:52:52.593Z,2.68
2022-12-03T14:55:20.480Z,2.67
2022-12-03T14:57:48.416Z,2.67
2022-12-03T15:00:17.232Z,2.69
2022-12-03T15:02:45.206Z,2.68
2022-12-03T15:05:16.612Z,2.66
2022-12-03T15:07:44.475Z,2.65
2022-12-03T15:10:21.332Z,2.67
2022-12-03T15:12:50.992Z,2.66
2022-12-03T15:15:20.535Z,2.68
2022-12-03T15:18:45.189Z,2.68
2022-12-03T15:21:35.082Z,2.70
2022-12-03T15:24:04.166Z,2.70
2022-12-03T15:26:32.493Z,2.70
2022-12-03T15:29:00.514Z,2.67
2022-12-03T15:31:28.554Z,2.67
2022-12-03T15:34:27.078Z,2.67
2022-12-03T15:36:55.845Z,2.65
2022-12-03T15:42:12.592Z,2.62
2022-12-03T15:44:40.574Z,2.60
2022-12-03T15:47:08.527Z,2.58
2022-12-03T15:49:36.469Z,2.57
2022-12-03T15:54:50.603Z,2.58
2022-12-03T16:00:14.910Z,2.59
2022-12-03T16:02:52.488Z,2.57
2022-12-03T16:05:20.956Z,2.55
2022-12-03T16:07:48.917Z,2.55
2022-12-03T16:10:17.695Z,2.55
2022-12-03T16:12:51.587Z,2.56
2022-12-03T16:15:23.695Z,2.55
2022-12-03T16:17:54.708Z,2.54
2022-12-03T16:20:28.186Z,2.58
2022-12-03T16:22:58.377Z,2.57
2022-12-03T16:25:28.587Z,2.57
2022-12-03T16:28:05.465Z,2.58
2022-12-03T16:31:02.644Z,2.61
2022-12-03T16:33:33.822Z,2.63
2022-12-03T16:36:23.427Z,2.65
2022-12-03T16:39:32.139Z,2.65
2022-12-03T16:42:10.421Z,2.67
2022-12-03T16:45:17.611Z,2.70
2022-12-03T16:50:44.697Z,2.77
2022-12-03T16:53:16.110Z,2.80
2022-12-03T16:55:44.148Z,2.80
2022-12-03T16:58:12.263Z,2.78
2022-12-03T17:00:40.339Z,2.78
2022-12-03T17:03:08.318Z,2.76
2022-12-03T17:05:36.331Z,2.71
2022-12-03T17:08:04.426Z,2.70
2022-12-03T17:10:32.836Z,2.70
2022-12-03T17:13:09.302Z,2.66
2022-12-03T17:15:39.690Z,2.67
2022-12-03T17:18:08.722Z,2.69
2022-12-03T17:20:37.414Z,2.71
2022-12-03T17:23:05.313Z,2.72
2022-12-03T17:25:34.600Z,2.73
2022-12-03T17:28:02.664Z,2.76
2022-12-03T17:30:30.625Z,2.77
2022-12-03T17:32:58.570Z,2.75
2022-12-03T17:35:28.567Z,2.76
2022-12-03T17:37:56.663Z,2.75
2022-12-03T17:40:24.773Z,2.75
2022-12-03T17:42:52.676Z,2.75
2022-12-03T17:45:20.511Z,2.74
2022-12-03T17:47:48.343Z,2.74
2022-12-03T17:50:16.620Z,2.77
2022-12-03T17:52:44.722Z,2.77
2022-12-03T17:55:21.094Z,2.79
2022-12-03T17:57:54.232Z,2.83
2022-12-03T18:00:22.189Z,2.84
2022-12-03T18:02:50.087Z,2.86
2022-12-03T18:05:18.003Z,2.84
2022-12-03T18:07:45.971Z,2.84
2022-12-03T18:10:13.766Z,2.83
2022-12-03T18:12:41.650Z,2.86
2022-12-03T18:15:09.862Z,2.87
2022-12-03T18:17:37.779Z,2.88
2022-12-03T18:20:06.645Z,2.85
2022-12-03T18:22:35.277Z,2.85
2022-12-03T18:25:04.021Z,2.88
2022-12-03T18:27:31.970Z,2.90
2022-12-03T18:30:00.919Z,2.94
2022-12-03T18:32:30.030Z,2.97
2022-12-03T18:34:58.245Z,2.99
2022-12-03T18:37:28.397Z,3.02
2022-12-03T18:39:57.895Z,3.04
2022-12-03T18:42:27.085Z,3.06
2022-12-03T18:44:56.921Z,3.07
2022-12-03T18:47:28.672Z,3.11
2022-12-03T18:49:57.146Z,3.14
2022-12-03T18:52:26.103Z,3.16
2022-12-03T18:54:55.404Z,3.19
2022-12-03T18:57:23.699Z,3.20
2022-12-03T18:59:51.967Z,3.23
2022-12-03T19:02:54.237Z,3.27
2022-12-03T19:05:11.893Z,3.28
2022-12-03T19:07:39.780Z,3.27
2022-12-03T19:10:09.043Z,3.27
2022-12-03T19:12:38.011Z,3.26
2022-12-03T19:15:06.717Z,3.22
2022-12-03T19:17:34.571Z,3.21
2022-12-03T19:20:02.392Z,3.20
2022-12-03T19:22:30.166Z,3.20
2022-12-03T19:24:57.984Z,3.20
2022-12-03T19:27:25.829Z,3.18
2022-12-03T19:29:54.025Z,3.18
2022-12-03T19:32:22.532Z,3.16
2022-12-03T19:34:50.414Z,3.14
2022-12-03T19:37:18.221Z,3.16
2022-12-03T19:39:46.566Z,3.17
2022-12-03T19:42:14.383Z,3.17
2022-12-03T19:44:42.290Z,3.15
2022-12-03T19:47:10.195Z,3.14
2022-12-03T19:49:38.117Z,3.15
2022-12-03T19:52:06.199Z,3.16
2022-12-03T19:54:34.049Z,3.14
2022-12-03T19:57:01.951Z,3.09
2022-12-03T19:59:29.861Z,3.08
2022-12-03T20:01:58.106Z,3.06
2022-12-03T20:04:26.726Z,3.05
2022-12-03T20:06:54.626Z,3.09
2022-12-03T20:09:22.811Z,3.11
2022-12-03T20:11:51.547Z,3.10
2022-12-03T20:14:20.001Z,3.11
2022-12-03T20:16:48.532Z,3.12
2022-12-03T20:19:17.325Z,3.16
2022-12-03T20:21:45.641Z,3.18
2022-12-03T20:24:16.508Z,3.17
2022-12-03T20:26:44.473Z,3.17
2022-12-03T20:29:12.526Z,3.17
2022-12-03T20:31:40.559Z,3.16
2022-12-03T20:34:10.971Z,3.16
2022-12-03T20:36:40.000Z,3.14
2022-12-03T20:39:08.459Z,3.10
2022-12-03T20:41:37.298Z,3.10
2022-12-03T20:44:07.644Z,3.08
2022-12-03T20:46:36.229Z,3.09
2022-12-03T20:49:04.705Z,3.09
2022-12-03T20:51:32.803Z,3.09
2022-12-03T20:54:01.377Z,3.12
2022-12-03T20:56:32.417Z,3.14
2022-12-03T20:59:06.524Z,3.16
2022-12-03T21:01:38.385Z,3.17
2022-12-03T21:04:07.388Z,3.17
2022-12-03T21:06:37.089Z,3.18
2022-12-03T21:09:07.075Z,3.19
2022-12-03T21:11:36.402Z,3.20
2022-12-03T21:14:05.094Z,3.20
2022-12-03T21:19:23.994Z,3.21
2022-12-03T21:21:51.991Z,3.19
2022-12-03T21:24:20.044Z,3.19
2022-12-03T21:26:47.881Z,3.21
2022-12-03T21:29:16.530Z,3.20
2022-12-03T21:31:44.448Z,3.19
2022-12-03T21:34:12.500Z,3.21
2022-12-03T21:36:40.692Z,3.26
2022-12-03T21:39:08.543Z,3.33
2022-12-03T21:41:36.481Z,3.37
2022-12-03T21:44:04.592Z,3.39
2022-12-03T21:47:10.951Z,3.39
2022-12-03T21:49:20.447Z,3.41
2022-12-03T21:51:49.181Z,3.42
2022-12-03T21:54:17.229Z,3.46
2022-12-03T21:56:45.084Z,3.48
2022-12-03T21:59:12.890Z,3.48
2022-12-03T22:01:45.705Z,3.48
2022-12-03T22:04:15.072Z,3.47
2022-12-03T22:06:42.870Z,3.47
2022-12-03T22:09:10.698Z,3.45
2022-12-03T22:11:38.958Z,3.42
2022-12-03T22:14:08.284Z,3.44
2022-12-03T22:16:36.266Z,3.42
2022-12-03T22:19:04.428Z,3.41
2022-12-03T22:21:32.246Z,3.43
2022-12-03T22:24:00.156Z,3.45
2022-12-03T22:26:28.008Z,3.44
2022-12-03T22:28:55.846Z,3.42
2022-12-03T22:31:23.804Z,3.41
2022-12-03T22:33:51.756Z,3.41
2022-12-03T22:36:21.542Z,3.44
2022-12-03T22:38:50.929Z,3.47
2022-12-03T22:41:19.953Z,3.48
2022-12-03T22:43:48.883Z,3.46
2022-12-03T22:46:17.807Z,3.42
2022-12-03T22:48:46.757Z,3.41
2022-12-03T22:51:20.718Z,3.44
2022-12-03T22:53:54.468Z,3.45
2022-12-03T22:56:22.743Z,3.49
2022-12-03T22:58:50.996Z,3.50
2022-12-03T23:01:26.245Z,3.52
2022-12-03T23:03:55.417Z,3.52
2022-12-03T23:06:24.308Z,3.51
2022-12-03T23:08:52.733Z,3.51
2022-12-03T23:11:21.662Z,3.52
2022-12-03T23:13:49.561Z,3.52
2022-12-03T23:16:21.083Z,3.50
2022-12-03T23:18:50.186Z,3.50
2022-12-03T23:21:29.272Z,3.48
2022-12-03T23:24:03.871Z,3.47
2022-12-03T23:26:36.764Z,3.48
2022-12-03T23:29:06.129Z,3.51
2022-12-03T23:31:34.994Z,3.53
2022-12-03T23:34:04.000Z,3.52
2022-12-03T23:36:33.008Z,3.53
2022-12-03T23:39:01.221Z,3.54
2022-12-03T23:41:29.133Z,3.53
2022-12-03T23:43:57.469Z,3.53
2022-12-03T23:46:27.419Z,3.54
2022-12-03T23:48:56.180Z,3.53
2022-12-03T23:51:25.552Z,3.53
2022-12-03T23:53:55.009Z,3.51
2022-12-03T23:56:32.471Z,3.50
2022-12-03T23:59:00.361Z,3.53
